Startpagina
METAR-TAF:

METAR-TAF

Vliegvelden :

Aeroport de Barcelona-el Prat

Barcelona, Spanje

breedte: 41-17N, lengte: 002-04E, hoogte: 4 m

Actueel weer

Dit bericht is 32 minuten geleden gemaakt, om 07:00 UTC
Wind 6 kt uit het noordwesten
Temperatuur 23°C
Vochtigheid 65%
Druk 1020 hPa
Zicht 10 km of meer
Weinig wolken op 1800 ft

METAR: LEBL 050700Z 32006KT 9999 FEW018 23/16 Q1020 NOSIG

Tijdstip: 09:32 (07:32 UTC)

Verwachting

Dit bericht is 2 uur en het 32 minuten geleden gemaakt, om 05:00 UTC
Verwachting geldig van 05 om 06 UTC tot 06 om 06 UTC
Wind 4 kt uit variabele richting
Zicht 10 km of meer
Weinig wolken op 3000 ft
Wijzigt naar
van 05 om 07 UTC tot 05 om 09 UTC
Wind 12 kt uit het zuidzuidwesten
Wijzigt naar
van 05 om 22 UTC tot 05 om 24 UTC
Wind 3 kt uit variabele richting

TAF: LEBL 050500Z 0506/0606 VRB04KT 9999 FEW030 TX29/0512Z TN20/0506Z BECMG 0507/0509 21012KT BECMG 0522/0524 VRB03KT

Waarnemingen en weersverwachtingen van meer dan 4000 vliegvelden (METAR en TAF).

De beschikbare stations zijn de gele en rode punten op de kaart.

Ga met uw muis naar het station om de naam te zien.

Klik dan om waarnemingen en weersverwachtingen te zien.

kaart wijzigen: klik op de groene knoppen met een zwart kruis om in te zoomen, op de groene knop met een streepje om uit te zoomen of op de groene pijlen voor aangrenzende kaarten.


METAR-TAF: